Sea Drift — WDC2818 — position and weather

sailwx.info

Track history (hours):
 
Tides and Currents Weather Stations Pressure Air Temp Water Temp Dewpoint Dewpoint Depression Visibility Wind Speed Wind Dir Waves Ship Positions

Sea Drift

Owner: Marquette Transportation Company Gulf-Inland, LLC, Jefferson, LA. More information available from US FCC via Universal Licensing System and Coast Guard Vessel Documentation Center.

Last reported at 2015-Apr-26 16:30 UTC. Time now 2015-Apr-28 00:36 UTC.
Position N 28°32' W 096°15'.

Length 23 m; draft 3 m.

Type: Towing. MMSI: 366998080.

Date/timePositionNaut miles runAvg speedWind from/ knotsBaromVisibWave heightAir tempDewpointWater temp
2015-Apr-26 16:30N 28°32' W 096°15'90 1.8
2015-Apr-24 15:24N 29°22' W 094°51'8 1.3
2015-Apr-24 09:33N 29°30' W 094°52'9 8.6
2015-Apr-24 08:33N 29°37' W 094°58'8 7.9
2015-Apr-24 07:33N 29°44' W 095°03'3 3.4
2015-Apr-24 06:33N 29°46' W 095°06'1 1.0
2015-Apr-24 05:33N 29°46' W 095°05'1 0.9
2015-Apr-24 04:34N 29°45' W 095°06'0 0.5
2015-Apr-24 03:33N 29°46' W 095°06'7 6.6
2015-Apr-24 02:33N 29°42' W 094°60'8 8.3
2015-Apr-24 01:34N 29°35' W 094°56'9 8.4
2015-Apr-24 00:32N 29°27' W 094°51'6 1.8
2015-Apr-23 21:11N 29°22' W 094°48'9 0.4
2015-Apr-22 23:16N 29°30' W 094°52'6 9.0
2015-Apr-22 22:33N 29°35' W 094°56'8 8.4
2015-Apr-22 21:33N 29°42' W 095°01'6 5.9
2015-Apr-22 20:33N 29°46' W 095°06'1 0.8
2015-Apr-22 19:33N 29°46' W 095°06'0 0.1
2015-Apr-22 18:33N 29°46' W 095°05'0 0.0
2015-Apr-22 17:33N 29°46' W 095°05'6 5.6
2015-Apr-22 16:33N 29°42' W 095°01'7 7.0
2015-Apr-22 15:33N 29°36' W 094°57'8 7.5
2015-Apr-22 14:33N 29°30' W 094°52'3 0.1
2015-Apr-21 13:33N 29°32' W 094°54'8 7.8
2015-Apr-21 12:33N 29°39' W 094°58'8 7.5
2015-Apr-21 11:33N 29°45' W 095°04'2 1.8
2015-Apr-21 10:33N 29°46' W 095°06'0 0.1
2015-Apr-21 09:33N 29°46' W 095°06'2 2.3
2015-Apr-21 08:33N 29°45' W 095°04'5 5.3
2015-Apr-21 07:33N 29°41' W 094°59'6 5.6
2015-Apr-21 06:33N 29°36' W 094°57'6 5.8
2015-Apr-21 05:33N 29°31' W 094°53'6 5.7
2015-Apr-21 04:29N 29°26' W 094°50'3 2.6
2015-Apr-21 03:12N 29°22' W 094°50'3 4.3
2015-Apr-21 02:26N 29°22' W 094°54'7 0.2
2015-Apr-19 12:33N 29°23' W 094°46'13 0.8
2015-Apr-18 20:33N 29°33' W 094°55'8 8.0
2015-Apr-18 19:33N 29°41' W 094°59'7 7.5
2015-Apr-18 18:33N 29°46' W 095°05'2 1.5
2015-Apr-18 17:33N 29°47' W 095°04'2 1.9
2015-Apr-18 16:33N 29°46' W 095°06'0 0.0
2015-Apr-18 15:33N 29°46' W 095°06'0 0.0
2015-Apr-18 14:33N 29°46' W 095°06'0 0.0
2015-Apr-18 13:33N 29°46' W 095°06'0 0.0
2015-Apr-18 12:33N 29°46' W 095°06'0 0.0
2015-Apr-18 11:33N 29°46' W 095°06'0 0.0
2015-Apr-18 10:33N 29°46' W 095°06'0 0.0
2015-Apr-18 09:32N 29°46' W 095°06'0 0.0
2015-Apr-18 08:33N 29°46' W 095°06'0 0.0
2015-Apr-18 07:29N 29°46' W 095°06'0 0.0
2015-Apr-18 06:33N 29°46' W 095°06'0 0.0
2015-Apr-18 05:27N 29°46' W 095°06'0 0.0
2015-Apr-18 04:29N 29°46' W 095°06'0 0.0
2015-Apr-18 03:33N 29°46' W 095°06'2 1.5
2015-Apr-18 02:33N 29°47' W 095°04'0 0.4
2015-Apr-18 01:33N 29°47' W 095°04'2 1.7
2015-Apr-18 00:33N 29°46' W 095°05'2 2.1
2015-Apr-17 23:33N 29°44' W 095°04'6 6.5
2015-Apr-17 22:33N 29°40' W 094°58'8 7.8
2015-Apr-17 21:33N 29°33' W 094°54'8 7.9
2015-Apr-17 20:32N 29°26' W 094°50'3 3.3
2015-Apr-17 19:30N 29°22' W 094°51'4 0.6
2015-Apr-17 13:09N 29°22' W 094°47'  
Track history (hours):
 
Tides and Currents Weather Stations Pressure Air Temp Water Temp Dewpoint Dewpoint Depression Visibility Wind Speed Wind Dir Waves Ship Positions

Sea Drift

Owner: Marquette Transportation Company Gulf-Inland, LLC, Jefferson, LA. More information available from US FCC via Universal Licensing System and Coast Guard Vessel Documentation Center.

Last reported at 2015-Apr-26 16:30 UTC. Time now 2015-Apr-28 00:36 UTC.
Position N 28°32' W 096°15'.

Length 23 m; draft 3 m.

Type: Towing. MMSI: 366998080.

Date/timePositionNaut miles runAvg speedWind from/ knotsBaromVisibWave heightAir tempDewpointWater temp
2015-Apr-26 16:30N 28°32' W 096°15'90 1.8
2015-Apr-24 15:24N 29°22' W 094°51'8 1.3
2015-Apr-24 09:33N 29°30' W 094°52'9 8.6
2015-Apr-24 08:33N 29°37' W 094°58'8 7.9
2015-Apr-24 07:33N 29°44' W 095°03'3 3.4
2015-Apr-24 06:33N 29°46' W 095°06'1 1.0
2015-Apr-24 05:33N 29°46' W 095°05'1 0.9
2015-Apr-24 04:34N 29°45' W 095°06'0 0.5
2015-Apr-24 03:33N 29°46' W 095°06'7 6.6
2015-Apr-24 02:33N 29°42' W 094°60'8 8.3
2015-Apr-24 01:34N 29°35' W 094°56'9 8.4
2015-Apr-24 00:32N 29°27' W 094°51'6 1.8
2015-Apr-23 21:11N 29°22' W 094°48'9 0.4
2015-Apr-22 23:16N 29°30' W 094°52'6 9.0
2015-Apr-22 22:33N 29°35' W 094°56'8 8.4
2015-Apr-22 21:33N 29°42' W 095°01'6 5.9
2015-Apr-22 20:33N 29°46' W 095°06'1 0.8
2015-Apr-22 19:33N 29°46' W 095°06'0 0.1
2015-Apr-22 18:33N 29°46' W 095°05'0 0.0
2015-Apr-22 17:33N 29°46' W 095°05'6 5.6
2015-Apr-22 16:33N 29°42' W 095°01'7 7.0
2015-Apr-22 15:33N 29°36' W 094°57'8 7.5
2015-Apr-22 14:33N 29°30' W 094°52'3 0.1
2015-Apr-21 13:33N 29°32' W 094°54'8 7.8
2015-Apr-21 12:33N 29°39' W 094°58'8 7.5
2015-Apr-21 11:33N 29°45' W 095°04'2 1.8
2015-Apr-21 10:33N 29°46' W 095°06'0 0.1
2015-Apr-21 09:33N 29°46' W 095°06'2 2.3
2015-Apr-21 08:33N 29°45' W 095°04'5 5.3
2015-Apr-21 07:33N 29°41' W 094°59'6 5.6
2015-Apr-21 06:33N 29°36' W 094°57'6 5.8
2015-Apr-21 05:33N 29°31' W 094°53'6 5.7
2015-Apr-21 04:29N 29°26' W 094°50'3 2.6
2015-Apr-21 03:12N 29°22' W 094°50'3 4.3
2015-Apr-21 02:26N 29°22' W 094°54'7 0.2
2015-Apr-19 12:33N 29°23' W 094°46'13 0.8
2015-Apr-18 20:33N 29°33' W 094°55'8 8.0
2015-Apr-18 19:33N 29°41' W 094°59'7 7.5
2015-Apr-18 18:33N 29°46' W 095°05'2 1.5
2015-Apr-18 17:33N 29°47' W 095°04'2 1.9
2015-Apr-18 16:33N 29°46' W 095°06'0 0.0
2015-Apr-18 15:33N 29°46' W 095°06'0 0.0
2015-Apr-18 14:33N 29°46' W 095°06'0 0.0
2015-Apr-18 13:33N 29°46' W 095°06'0 0.0
2015-Apr-18 12:33N 29°46' W 095°06'0 0.0
2015-Apr-18 11:33N 29°46' W 095°06'0 0.0
2015-Apr-18 10:33N 29°46' W 095°06'0 0.0
2015-Apr-18 09:32N 29°46' W 095°06'0 0.0
2015-Apr-18 08:33N 29°46' W 095°06'0 0.0
2015-Apr-18 07:29N 29°46' W 095°06'0 0.0
2015-Apr-18 06:33N 29°46' W 095°06'0 0.0
2015-Apr-18 05:27N 29°46' W 095°06'0 0.0
2015-Apr-18 04:29N 29°46' W 095°06'0 0.0
2015-Apr-18 03:33N 29°46' W 095°06'2 1.5
2015-Apr-18 02:33N 29°47' W 095°04'0 0.4
2015-Apr-18 01:33N 29°47' W 095°04'2 1.7
2015-Apr-18 00:33N 29°46' W 095°05'2 2.1
2015-Apr-17 23:33N 29°44' W 095°04'6 6.5
2015-Apr-17 22:33N 29°40' W 094°58'8 7.8
2015-Apr-17 21:33N 29°33' W 094°54'8 7.9
2015-Apr-17 20:32N 29°26' W 094°50'3 3.3
2015-Apr-17 19:30N 29°22' W 094°51'4 0.6
2015-Apr-17 13:09N 29°22' W 094°47'  

Dump ship's entire track history